Latest Weather Observations for Meekatharra

IDW60801

Issued at 9:34 am WST Monday 27 February 2017 (issued every 30 minutes, with the page automatically refreshed every 10 minutes)

About weather observations | Map of weather stations | Latest weather observations for WA | Other Formats
Station Details ID: 007045 Name: MEEKATHARRA AIRPORT Lat: -26.61 Lon: 118.54 Height: 517.0 m
Data from the previous 72 hours. | See also: Recent months at Meekatharra
Date/Time
WST
Temp
°C
App
Temp
°C
Dew
Point
°C
Rel
Hum
%
Delta-T
°C
Wind Press
QNH
hPa
Press
MSL
hPa
Rain since
9am
mm
Dir  Spd
km/h
Gust
km/h
Spd
kts
Gust
kts
27/09:30am 32.8 29.1 9.6 24 13.5 N 19 30 10 16 1015.0 1010.9 0.0
27/09:00am 31.7 29.2 9.8 26 12.7 NNE 13 19 7 10 1015.0 1010.9 0.0
27/08:30am 30.3 28.6 9.8 28 11.8 ENE 9 13 5 7 1014.7 1010.6 0.0
27/08:00am 29.5 27.7 9.6 29 11.4 SE 9 11 5 6 1014.4 1010.3 0.0
27/07:30am 27.9 25.3 10.6 34 10.0 SSE 15 20 8 11 1014.2 1010.0 0.0
27/07:00am 26.9 24.8 11.0 37 9.2 SSE 13 15 7 8 1014.2 1010.0 0.0
27/06:30am 25.4 23.5 10.4 39 8.5 SSE 11 15 6 8 1013.8 1009.7 0.0
27/06:00am 25.8 23.4 10.0 37 9.0 SE 13 15 7 8 1013.6 1009.5 0.0
27/05:30am 26.3 23.1 10.0 36 9.3 SE 17 20 9 11 1013.3 1009.2 0.0
27/05:00am 25.3 23.5 10.7 40 8.4 SE 11 13 6 7 1013.3 1009.2 0.0
27/04:30am 24.8 23.2 11.4 43 7.7 S 11 13 6 7 1013.1 1009.0 0.0
27/04:00am 25.4 24.1 11.2 41 8.2 SSE 9 13 5 7 1013.2 1009.1 0.0
27/03:30am 26.0 24.0 11.4 40 8.5 S 13 17 7 9 1013.0 1008.9 0.0
27/03:00am 26.4 24.3 11.3 39 8.8 S 13 17 7 9 1013.1 1009.0 0.0
27/02:30am 26.8 24.9 11.7 39 8.8 S 13 17 7 9 1013.6 1009.5 0.0
27/02:00am 27.2 25.3 11.7 38 9.1 S 13 17 7 9 1013.6 1009.5 0.0
27/01:30am 27.8 25.9 11.8 37 9.4 S 13 17 7 9 1013.8 1009.7 0.0
27/01:00am 28.0 26.2 12.0 37 9.5 S 13 17 7 9 1014.0 1009.8 0.0
27/12:30am 27.8 26.0 12.2 38 9.3 SSW 13 15 7 8 1014.0 1009.8 0.0
27/12:00am 28.0 26.8 12.8 39 9.1 S 11 13 6 7 1014.2 1010.0 0.0
 
Date/Time
WST
Temp
°C
App
Temp
°C
Dew
Point
°C
Rel
Hum
%
Delta-T
°C
Wind Press
QNH
hPa
Press
MSL
hPa
Rain since
9am
mm
Dir  Spd
km/h
Gust
km/h
Spd
kts
Gust
kts
26/11:30pm 28.4 26.7 12.3 37 9.6 SW 13 17 7 9 1014.3 1010.1 0.0
26/11:00pm 28.7 27.1 11.7 35 10.0 SW 11 15 6 8 1014.1 1009.9 0.0
26/10:30pm 29.3 27.1 10.9 32 10.8 SSW 13 19 7 10 1014.2 1010.0 0.0
26/10:00pm 28.7 26.5 10.8 33 10.4 SSE 13 15 7 8 1014.2 1010.0 0.0
26/09:30pm 28.8 27.7 11.8 35 10.1 SSW 9 9 5 5 1014.3 1010.1 0.0
26/09:00pm 29.4 27.9 11.9 34 10.4 SSW 11 13 6 7 1014.2 1010.0 0.0
26/08:30pm 29.4 27.8 11.5 33 10.6 S 11 15 6 8 1013.8 1009.7 0.0
26/08:00pm 30.1 28.0 11.1 31 11.2 SW 13 15 7 8 1013.7 1009.6 0.0
26/07:30pm 30.0 27.6 11.5 32 11.0 SSW 15 20 8 11 1013.4 1009.3 0.0
26/07:00pm 29.9 26.5 11.4 32 10.9 SSW 20 28 11 15 1013.6 1009.5 0.0
26/06:30pm 30.1 26.2 12.1 33 10.8 SW 24 37 13 20 1013.5 1009.4 0.0
26/06:00pm 31.6 29.0 11.9 30 11.8 WSW 17 26 9 14 1013.1 1009.0 0.0
26/05:30pm 33.2 27.9 9.9 24 13.6 SW 28 41 15 22 1012.6 1008.4 0.0
26/05:00pm 36.3 32.1 7.4 17 16.5 WNW 19 30 10 16 1011.4 1007.3 0.0
26/04:30pm 37.1 33.0 6.2 15 17.4 WNW 17 26 9 14 1011.4 1007.3 0.0
26/04:00pm 37.7 32.9 4.6 13 18.3 NNW 19 30 10 16 1011.3 1007.2 0.0
26/03:30pm 38.6 33.7 4.1 12 19.0 NW 19 32 10 17 1011.5 1007.4 0.0
26/03:00pm 39.4 34.2 3.5 11 19.6 N 20 37 11 20 1011.6 1007.5 0.0
26/02:30pm 38.6 33.3 2.9 11 19.3 N 20 35 11 19 1012.0 1007.8 0.0
26/02:00pm 39.1 33.5 3.3 11 19.5 N 22 33 12 18 1012.3 1008.1 0.0
26/01:30pm 37.8 32.4 2.3 11 18.9 N 20 35 11 19 1012.6 1008.4 0.0
26/01:00pm 38.7 33.2 4.2 12 19.0 N 22 33 12 18 1012.8 1008.7 0.0
26/12:30pm 37.3 31.9 4.3 13 18.1 N 22 41 12 22 1013.2 1009.1 0.0
26/12:00pm 37.1 31.5 5.2 14 17.7 N 24 33 13 18 1013.6 1009.5 0.0
26/11:30am 36.8 30.3 4.9 14 17.6 N 28 43 15 23 1014.0 1009.8 0.0
26/11:00am 36.0 29.8 4.3 14 17.2 N 26 43 14 23 1014.3 1010.1 0.0
26/10:30am 35.9 29.3 4.2 14 17.2 NNE 28 43 15 23 1014.5 1010.4 0.0
26/10:23am 36.2 29.7 4.5 14 17.3 N 28 46 15 25 1014.5 1010.4 0.0
26/10:00am 35.1 28.0 3.6 14 16.9 N 30 39 16 21 1014.6 1010.5 0.0
26/09:47am 34.9 28.3 4.4 15 16.5 NNE 28 48 15 26 1014.7 1010.6 0.0
26/09:30am 33.5 26.5 4.2 16 15.7 N 30 41 16 22 1014.7 1010.6 0.0
26/09:00am 33.6 26.9 3.4 15 16.0 NNE 28 43 15 23 1014.6 1010.5 0.0
26/08:30am 32.8 26.1 3.7 16 15.4 NNE 28 39 15 21 1014.6 1010.5 0.0
26/08:00am 31.3 26.3 3.4 17 14.6 NE 19 30 10 16 1014.5 1010.4 0.0
26/07:30am 30.1 26.2 5.4 21 13.3 NE 15 20 8 11 1014.5 1010.4 0.0
26/07:00am 30.1 26.9 6.7 23 12.8 NE 13 20 7 11 1014.5 1010.4 0.0
26/06:30am 26.4 25.3 10.5 37 9.1 NNE 7 9 4 5 1014.2 1010.0 0.0
26/06:00am 25.4 23.8 10.1 38 8.7 ENE 9 11 5 6 1013.8 1009.7 0.0
26/05:30am 25.5 24.0 10.5 39 8.6 ENE 9 11 5 6 1013.6 1009.5 0.0
26/05:00am 25.9 23.7 10.9 39 8.6 E 13 13 7 7 1013.4 1009.3 0.0
26/04:30am 26.0 24.9 10.6 38 8.8 ESE 7 13 4 7 1013.2 1009.1 0.0
26/04:00am 26.9 25.8 10.6 36 9.4 SSE 7 9 4 5 1013.3 1009.2 0.0
26/03:30am 27.2 27.3 12.8 41 8.6 S 4 17 2 9 1013.4 1009.3 0.0
26/03:00am 28.5 28.5 11.1 34 10.2 ENE 2 7 1 4 1013.6 1009.5 0.0
26/02:30am 28.8 28.1 11.4 34 10.2 NE 6 9 3 5 1013.8 1009.7 0.0
26/02:00am 28.4 28.0 12.3 37 9.6 NNE 6 7 3 4 1014.3 1010.1 0.0
26/01:30am 29.4 28.3 10.0 30 11.2 SSE 6 13 3 7 1014.3 1010.1 0.0
26/01:00am 29.4 25.4 9.0 28 11.6 SSE 20 24 11 13 1013.2 1009.1 0.0
26/12:30am 29.9 25.7 8.3 26 12.1 S 20 32 11 17 1014.0 1009.8 0.0
26/12:00am 29.0 26.6 8.7 28 11.4 SE 11 17 6 9 1014.3 1010.1 0.0
 
Date/Time
WST
Temp
°C
App
Temp
°C
Dew
Point
°C
Rel
Hum
%
Delta-T
°C
Wind Press
QNH
hPa
Press
MSL
hPa
Rain since
9am
mm
Dir  Spd
km/h
Gust
km/h
Spd
kts
Gust
kts
25/11:30pm 29.6 27.2 8.6 27 11.8 E 11 13 6 7 1013.6 1009.5 0.0
25/11:00pm 30.2 28.2 8.6 26 12.2 E 9 13 5 7 1013.7 1009.6 0.0
25/10:30pm 30.3 29.0 9.8 28 11.8 E 7 9 4 5 1014.1 1009.9 0.0
25/10:00pm 30.6 29.3 10.0 28 11.9 ENE 7 9 4 5 1014.4 1010.3 0.0
25/09:30pm 30.4 30.3 10.9 30 11.5 ENE 2 7 1 4 1014.4 1010.3 0.0
25/09:00pm 31.1 30.5 10.4 28 12.1 ENE 4 7 2 4 1014.4 1010.3 0.0
25/08:30pm 32.1 30.3 9.6 25 13.0 E 9 11 5 6 1014.2 1010.0 0.0
25/08:00pm 32.4 30.5 9.2 24 13.4 ESE 9 11 5 6 1013.8 1009.7 0.0
25/07:30pm 32.9 30.8 9.7 24 13.5 ESE 11 17 6 9 1013.6 1009.5 0.0
25/07:00pm 34.1 31.2 8.0 20 14.9 E 13 24 7 13 1013.3 1009.2 0.0
25/06:30pm 35.0 31.3 7.9 19 15.5 E 17 24 9 13 1013.1 1009.0 0.0
25/06:00pm 36.2 33.7 8.1 18 16.2 ENE 11 28 6 15 1013.0 1008.9 0.0
25/05:30pm 37.5 34.6 4.4 13 18.2 NNE 9 15 5 8 1012.9 1008.8 0.0
25/05:00pm 37.8 35.3 3.5 12 18.6 SSE 6 9 3 5 1013.0 1008.9 0.0
25/04:30pm 37.9 33.3 3.6 12 18.6 NW 17 24 9 13 1013.1 1009.0 0.0
25/04:00pm 38.4 34.4 2.8 11 19.2 NNE 13 28 7 15 1013.4 1009.3 0.0
25/03:30pm 38.4 33.3 2.8 11 19.2 NNW 19 32 10 17 1013.5 1009.4 0.0
25/03:00pm 37.8 34.5 4.7 13 18.3 ENE 11 24 6 13 1013.8 1009.7 0.0
25/02:30pm 36.8 33.9 4.9 14 17.6 NW 9 20 5 11 1014.4 1010.3 0.0
25/02:00pm 37.2 34.0 5.3 14 17.7 NNE 11 17 6 9 1014.8 1010.7 0.0
25/01:30pm 37.5 33.8 6.5 15 17.6 NNE 15 24 8 13 1015.3 1011.2 0.0
25/01:00pm 37.1 32.4 6.2 15 17.4 N 20 32 11 17 1015.7 1011.6 0.0
25/12:30pm 36.9 32.4 7.0 16 17.0 NE 20 28 11 15 1016.3 1012.2 0.0
25/12:00pm 36.7 32.2 6.8 16 16.9 NNE 20 35 11 19 1016.7 1012.6 0.0
25/11:30am 35.9 30.6 7.0 17 16.4 NNE 24 35 13 19 1017.1 1013.0 0.0
25/11:00am 35.4 30.3 7.5 18 15.9 NNE 24 35 13 19 1017.4 1013.3 0.0
25/10:30am 34.2 29.2 8.0 20 15.0 NE 24 37 13 20 1017.8 1013.7 0.0
25/10:00am 33.3 28.3 8.0 21 14.4 NE 24 39 13 21 1018.2 1014.1 0.0
25/09:30am 31.9 26.4 7.5 22 13.7 NE 26 37 14 20 1018.4 1014.3 0.0
25/09:00am 30.5 25.0 7.7 24 12.7 NE 26 41 14 22 1018.5 1014.4 0.0
25/08:30am 29.9 24.8 7.8 25 12.3 NE 24 39 13 21 1018.5 1014.4 0.0
25/08:00am 29.1 23.2 7.7 26 11.8 NE 28 41 15 22 1018.5 1014.4 0.0
25/07:30am 27.7 22.7 8.1 29 10.9 ENE 24 35 13 19 1018.5 1014.4 0.0
25/07:00am 25.2 22.5 9.1 36 8.9 ENE 13 17 7 9 1018.5 1014.4 0.0
25/06:30am 23.9 21.6 9.1 39 8.2 E 11 13 6 7 1018.2 1014.1 0.0
25/06:00am 23.2 21.3 8.9 40 7.8 E 9 13 5 7 1018.1 1014.0 0.0
25/05:30am 23.6 21.2 8.8 39 8.1 E 11 13 6 7 1017.7 1013.6 0.0
25/05:00am 24.1 21.7 8.5 37 8.5 E 11 13 6 7 1017.6 1013.5 0.0
25/04:30am 24.6 22.2 8.5 36 8.8 E 11 15 6 8 1017.5 1013.4 0.0
25/04:00am 24.9 22.4 8.4 35 9.0 E 11 15 6 8 1017.4 1013.3 0.0
25/03:30am 25.3 22.3 7.9 33 9.5 E 13 17 7 9 1017.3 1013.2 0.0
25/03:00am 25.8 22.8 7.9 32 9.8 ESE 13 17 7 9 1017.2 1013.1 0.0
25/02:30am 26.1 23.1 7.7 31 10.0 ESE 13 17 7 9 1017.3 1013.2 0.0
25/02:00am 26.5 23.5 7.5 30 10.3 ESE 13 19 7 10 1017.4 1013.3 0.0
25/01:30am 26.8 23.7 7.3 29 10.6 ESE 13 20 7 11 1017.6 1013.5 0.0
25/01:00am 27.2 23.7 7.1 28 10.9 SE 15 20 8 11 1017.8 1013.7 0.0
25/12:30am 27.7 24.0 6.5 26 11.4 ESE 15 19 8 10 1017.7 1013.6 0.0
25/12:00am 28.2 24.1 6.3 25 11.8 ESE 17 22 9 12 1017.8 1013.7 0.0
 
Date/Time
WST
Temp
°C
App
Temp
°C
Dew
Point
°C
Rel
Hum
%
Delta-T
°C
Wind Press
QNH
hPa
Press
MSL
hPa
Rain since
9am
mm
Dir  Spd
km/h
Gust
km/h
Spd
kts
Gust
kts
24/11:30pm 28.7 24.1 5.5 23 12.4 ESE 19 28 10 15 1017.9 1013.9 0.0
24/11:00pm 29.0 24.3 5.1 22 12.7 ESE 19 28 10 15 1018.1 1014.0 0.0
24/10:30pm 29.4 24.3 4.1 20 13.2 ESE 20 28 11 15 1018.1 1014.0 0.0
24/10:00pm 29.3 25.4 3.3 19 13.4 SE 13 17 7 9 1018.1 1014.0 0.0
24/09:30pm 29.9 25.9 3.0 18 13.8 SE 13 17 7 9 1018.1 1014.0 0.0
24/09:00pm 30.2 26.3 3.3 18 13.9 SE 13 19 7 10 1017.8 1013.7 0.0
24/08:30pm 30.9 26.9 3.0 17 14.4 SE 13 17 7 9 1017.6 1013.5 0.0
24/08:00pm 31.2 27.7 3.3 17 14.5 SE 11 17 6 9 1017.5 1013.4 0.0
24/07:30pm 32.2 28.9 2.3 15 15.4 SE 9 11 5 6 1017.2 1013.1 0.0
24/07:00pm 33.5 29.8 2.4 14 16.2 ESE 11 15 6 8 1017.0 1012.9 0.0
24/06:30pm 34.5 29.4 1.0 12 17.2 ESE 17 24 9 13 1016.7 1012.6 0.0
24/06:00pm 35.3 30.1 0.4 11 17.8 E 17 24 9 13 1016.6 1012.5 0.0
24/05:30pm 35.6 30.7 -0.7 10 18.2 ESE 15 22 8 12 1016.6 1012.5 0.0
24/05:00pm 36.1 30.8 -0.3 10 18.4 SE 17 28 9 15 1016.6 1012.5 0.0
24/04:30pm 36.4 30.8 -0.1 10 18.6 E 19 28 10 15 1016.7 1012.6 0.0
24/04:00pm 36.1 30.5 -0.3 10 18.4 ESE 19 28 10 15 1016.7 1012.6 0.0
24/03:30pm 36.3 31.1 -0.2 10 18.5 SE 17 30 9 16 1017.0 1012.9 0.0
24/03:00pm 36.5 32.0 0.0 10 18.6 ESE 13 26 7 14 1017.2 1013.1 0.0
24/02:30pm 35.5 31.1 0.6 11 17.9 SE 13 20 7 11 1017.6 1013.5 0.0
24/02:00pm 35.3 31.7 0.4 11 17.8 SSE 9 20 5 11 1018.1 1014.0 0.0
24/01:30pm 34.9 31.0 1.3 12 17.3 NE 11 20 6 11 1018.5 1014.4 0.0
24/01:00pm 34.3 29.8 2.0 13 16.8 ENE 15 26 8 14 1019.0 1014.9 0.0
24/12:30pm 33.5 28.5 1.3 13 16.5 E 17 28 9 15 1019.3 1015.2 0.0
24/12:00pm 33.0 28.1 2.0 14 16.0 ENE 17 28 9 15 1019.9 1015.9 0.0
24/11:30am 32.6 27.2 2.6 15 15.6 ENE 20 30 11 16 1020.4 1016.3 0.0
24/11:00am 31.3 26.1 3.4 17 14.5 ENE 20 33 11 18 1020.8 1016.7 0.0
24/10:30am 30.7 24.9 4.4 19 13.9 ENE 24 37 13 20 1021.1 1017.0 0.0
24/10:00am 30.3 23.3 4.1 19 13.7 E 30 41 16 22 1021.3 1017.2 0.0

Other Formats:

Comma delimited format used in spreadsheet applications
http://www.bom.gov.au/fwo/IDW60801/IDW60801.94430.axf

JavaScript Object Notation format (JSON) in row-major order
http://www.bom.gov.au/fwo/IDW60801/IDW60801.94430.json